createdAt,value
2017-12-29T00:00:48.437Z,0
2017-12-29T00:01:48.116Z,0
2017-12-29T00:02:48.158Z,0
2017-12-29T00:03:48.146Z,0
2017-12-29T00:04:48.166Z,0
2017-12-29T00:05:47.924Z,0
2017-12-29T00:06:48.192Z,0
2017-12-29T00:07:47.947Z,0
2017-12-29T00:08:48.752Z,0
2017-12-29T00:09:48.485Z,0
2017-12-29T00:10:48.250Z,0
2017-12-29T00:11:48.010Z,0
2017-12-29T00:12:48.271Z,0
2017-12-29T00:13:48.261Z,0
2017-12-29T00:14:48.288Z,0
2017-12-29T00:15:48.100Z,0
2017-12-29T00:16:48.281Z,0
2017-12-29T00:17:48.331Z,0
2017-12-29T00:18:48.308Z,0
2017-12-29T00:19:48.883Z,0
2017-12-29T00:20:48.622Z,0
2017-12-29T00:21:48.327Z,0
2017-12-29T00:22:48.382Z,0
2017-12-29T00:23:48.384Z,0
2017-12-29T00:24:48.412Z,0
2017-12-29T00:25:48.375Z,0
2017-12-29T00:26:48.431Z,0
2017-12-29T00:27:48.190Z,0
2017-12-29T00:28:48.465Z,0
2017-12-29T00:29:48.974Z,0
2017-12-29T00:30:49.043Z,0
2017-12-29T00:31:48.733Z,0
2017-12-29T00:32:48.753Z,0
2017-12-29T00:33:48.230Z,0
2017-12-29T00:34:49.024Z,0
2017-12-29T00:35:48.496Z,0
2017-12-29T00:36:48.755Z,0
2017-12-29T00:37:48.520Z,0
2017-12-29T00:38:48.315Z,0
2017-12-29T00:39:48.576Z,0
2017-12-29T00:40:48.330Z,0
2017-12-29T00:41:48.308Z,0
2017-12-29T00:42:48.585Z,0
2017-12-29T00:43:48.890Z,0
2017-12-29T00:44:48.871Z,0
2017-12-29T00:45:48.687Z,0
2017-12-29T00:46:49.139Z,0
2017-12-29T00:47:48.382Z,0
2017-12-29T00:48:48.390Z,0
2017-12-29T00:49:48.679Z,0
2017-12-29T00:50:48.907Z,0
2017-12-29T00:51:48.425Z,0
2017-12-29T00:52:48.940Z,0
2017-12-29T00:53:48.984Z,0
2017-12-29T00:54:48.461Z,0
2017-12-29T00:55:48.478Z,0
2017-12-29T00:56:48.716Z,0
2017-12-29T00:57:49.010Z,0
2017-12-29T00:58:48.554Z,0
2017-12-29T00:59:48.995Z,0
2017-12-29T01:00:48.302Z,0
2017-12-29T01:01:48.516Z,0
2017-12-29T01:02:48.276Z,0
2017-12-29T01:03:48.788Z,0
2017-12-29T01:04:49.307Z,0
2017-12-29T01:05:49.060Z,0
2017-12-29T01:06:48.822Z,0
2017-12-29T01:07:49.086Z,0
2017-12-29T01:08:48.847Z,0
2017-12-29T01:09:48.364Z,0
2017-12-29T01:10:48.872Z,0
2017-12-29T01:11:48.891Z,0
2017-12-29T01:12:48.638Z,0
2017-12-29T01:13:48.904Z,0
2017-12-29T01:14:48.912Z,0
2017-12-29T01:15:49.223Z,0
2017-12-29T01:16:48.940Z,0
2017-12-29T01:17:49.449Z,0
2017-12-29T01:18:48.964Z,0
2017-12-29T01:19:49.473Z,0
2017-12-29T01:20:48.738Z,0
2017-12-29T01:21:49.238Z,0
2017-12-29T01:22:49.267Z,0
2017-12-29T01:23:48.762Z,0
2017-12-29T01:24:48.775Z,0
2017-12-29T01:25:49.038Z,0
2017-12-29T01:26:49.076Z,0
2017-12-29T01:27:48.806Z,0
2017-12-29T01:28:49.071Z,0
2017-12-29T01:29:49.337Z,0
2017-12-29T01:30:49.642Z,0
2017-12-29T01:31:49.104Z,0
2017-12-29T01:32:49.114Z,0
2017-12-29T01:33:49.388Z,0
2017-12-29T01:34:49.638Z,0
2017-12-29T01:35:49.398Z,0
2017-12-29T01:36:49.164Z,0
2017-12-29T01:37:49.673Z,0
2017-12-29T01:38:49.183Z,0
2017-12-29T01:39:49.448Z,0
2017-12-29T01:40:49.209Z,0
2017-12-29T01:41:49.475Z,0
2017-12-29T01:42:49.229Z,0
2017-12-29T01:43:49.754Z,0
2017-12-29T01:44:49.753Z,0
2017-12-29T01:45:49.060Z,0
2017-12-29T01:46:49.271Z,0
2017-12-29T01:47:49.542Z,0
2017-12-29T01:48:49.552Z,0
2017-12-29T01:49:49.304Z,0
2017-12-29T01:50:49.627Z,0
2017-12-29T01:51:49.329Z,0
2017-12-29T01:52:49.338Z,0
2017-12-29T01:53:49.351Z,0
2017-12-29T01:54:49.623Z,0
2017-12-29T01:55:49.374Z,0
2017-12-29T01:56:49.395Z,0
2017-12-29T01:57:49.153Z,0
2017-12-29T01:58:49.407Z,0
2017-12-29T01:59:49.168Z,0
2017-12-29T02:00:49.179Z,0
2017-12-29T02:01:49.448Z,0
2017-12-29T02:02:49.968Z,0
2017-12-29T02:03:49.725Z,0
2017-12-29T02:04:49.746Z,0
2017-12-29T02:05:49.297Z,0
2017-12-29T02:06:49.758Z,0
2017-12-29T02:07:50.024Z,0
2017-12-29T02:08:49.778Z,0
2017-12-29T02:09:50.037Z,0
2017-12-29T02:10:49.549Z,0
2017-12-29T02:11:49.808Z,0
2017-12-29T02:12:49.568Z,0
2017-12-29T02:13:49.831Z,0
2017-12-29T02:14:49.337Z,0
2017-12-29T02:15:49.350Z,0
2017-12-29T02:16:49.360Z,0
2017-12-29T02:17:49.374Z,0
2017-12-29T02:18:49.888Z,0
2017-12-29T02:19:49.898Z,0
2017-12-29T02:20:50.209Z,0
2017-12-29T02:21:49.673Z,0
2017-12-29T02:22:50.188Z,0
2017-12-29T02:23:49.759Z,0
2017-12-29T02:24:49.454Z,0
2017-12-29T02:25:49.973Z,0
2017-12-29T02:26:49.478Z,0
2017-12-29T02:27:49.744Z,0
2017-12-29T02:28:50.266Z,0
2017-12-29T02:29:49.764Z,0
2017-12-29T02:30:49.782Z,0
2017-12-29T02:31:49.537Z,0
2017-12-29T02:32:50.058Z,0
2017-12-29T02:33:49.814Z,0
2017-12-29T02:34:50.088Z,0
2017-12-29T02:35:49.586Z,0
2017-12-29T02:36:49.855Z,0
2017-12-29T02:37:50.109Z,0
2017-12-29T02:38:49.415Z,0
2017-12-29T02:39:50.380Z,0
2017-12-29T02:40:50.157Z,0
2017-12-29T02:41:49.912Z,0
2017-12-29T02:42:49.913Z,0
2017-12-29T02:43:50.183Z,0
2017-12-29T02:44:50.189Z,0
2017-12-29T02:45:50.005Z,0
2017-12-29T02:46:50.464Z,0
2017-12-29T02:47:49.978Z,0
2017-12-29T02:48:50.486Z,0
2017-12-29T02:49:49.743Z,0
2017-12-29T02:50:50.259Z,0
2017-12-29T02:51:49.774Z,0
2017-12-29T02:52:50.043Z,0
2017-12-29T02:53:49.836Z,0
2017-12-29T02:54:50.305Z,0
2017-12-29T02:55:49.830Z,0
2017-12-29T02:56:49.830Z,0
2017-12-29T02:57:50.090Z,0
2017-12-29T02:58:50.344Z,0
2017-12-29T02:59:50.361Z,0
2017-12-29T03:00:50.621Z,0
2017-12-29T03:01:50.384Z,0
2017-12-29T03:02:50.645Z,0
2017-12-29T03:03:50.154Z,0
2017-12-29T03:04:49.913Z,0
2017-12-29T03:05:50.212Z,0
2017-12-29T03:06:50.190Z,0
2017-12-29T03:07:49.955Z,0
2017-12-29T03:08:50.511Z,0
2017-12-29T03:09:50.478Z,0
2017-12-29T03:10:50.240Z,0
2017-12-29T03:11:49.994Z,0
2017-12-29T03:12:50.003Z,0
2017-12-29T03:13:50.278Z,0
2017-12-29T03:14:50.545Z,0
2017-12-29T03:15:50.800Z,0
2017-12-29T03:16:50.102Z,0
2017-12-29T03:17:49.838Z,0
2017-12-29T03:18:50.340Z,0
2017-12-29T03:19:49.847Z,0
2017-12-29T03:20:50.605Z,0
2017-12-29T03:21:50.627Z,0
2017-12-29T03:22:50.133Z,0
2017-12-29T03:23:50.795Z,0
2017-12-29T03:24:50.667Z,0
2017-12-29T03:25:50.421Z,0
2017-12-29T03:26:50.453Z,0
2017-12-29T03:27:50.691Z,0
2017-12-29T03:28:49.950Z,0
2017-12-29T03:29:50.764Z,0
2017-12-29T03:30:50.478Z,0
2017-12-29T03:31:50.989Z,0
2017-12-29T03:32:51.001Z,0
2017-12-29T03:33:50.763Z,0
2017-12-29T03:34:50.727Z,0
2017-12-29T03:35:50.784Z,0
2017-12-29T03:36:50.043Z,0
2017-12-29T03:37:51.058Z,0
2017-12-29T03:38:50.842Z,0
2017-12-29T03:39:50.882Z,0
2017-12-29T03:40:50.844Z,0
2017-12-29T03:41:51.115Z,0
2017-12-29T03:42:50.867Z,0
2017-12-29T03:43:50.635Z,0
2017-12-29T03:44:50.907Z,0
2017-12-29T03:45:50.396Z,0
2017-12-29T03:46:51.166Z,0
2017-12-29T03:47:51.179Z,0
2017-12-29T03:48:51.182Z,0
2017-12-29T03:49:50.197Z,0
2017-12-29T03:50:51.214Z,0
2017-12-29T03:51:50.723Z,0
2017-12-29T03:52:50.983Z,0
2017-12-29T03:53:51.000Z,0
2017-12-29T03:54:51.460Z,0
2017-12-29T03:55:50.264Z,0
2017-12-29T03:56:50.531Z,0
2017-12-29T03:57:50.831Z,0
2017-12-29T03:58:50.552Z,0
2017-12-29T03:59:50.810Z,0
2017-12-29T04:00:51.074Z,0
2017-12-29T04:01:50.585Z,0
2017-12-29T04:02:51.096Z,0
2017-12-29T04:03:50.356Z,0
2017-12-29T04:04:50.616Z,0
2017-12-29T04:05:50.629Z,0
2017-12-29T04:06:51.150Z,0
2017-12-29T04:07:50.907Z,0
2017-12-29T04:08:50.672Z,0
2017-12-29T04:09:50.977Z,0
2017-12-29T04:10:51.198Z,0
2017-12-29T04:11:51.462Z,0
2017-12-29T04:12:50.715Z,0
2017-12-29T04:13:51.224Z,0
2017-12-29T04:14:51.241Z,0
2017-12-29T04:15:51.245Z,0
2017-12-29T04:16:51.257Z,0
2017-12-29T04:17:51.520Z,0
2017-12-29T04:18:50.779Z,0
2017-12-29T04:19:50.789Z,0
2017-12-29T04:20:50.798Z,0
2017-12-29T04:21:51.071Z,0
2017-12-29T04:22:51.331Z,0
2017-12-29T04:23:51.342Z,0
2017-12-29T04:24:51.396Z,0
2017-12-29T04:25:50.860Z,0
2017-12-29T04:26:51.375Z,0
2017-12-29T04:27:51.391Z,0
2017-12-29T04:28:50.900Z,0
2017-12-29T04:29:50.905Z,0
2017-12-29T04:30:50.921Z,0
2017-12-29T04:31:51.435Z,0
2017-12-29T04:32:51.694Z,0
2017-12-29T04:33:51.219Z,0
2017-12-29T04:34:50.962Z,0
2017-12-29T04:35:50.972Z,0
2017-12-29T04:36:51.239Z,0
2017-12-29T04:37:51.251Z,0
2017-12-29T04:38:51.768Z,0
2017-12-29T04:39:51.827Z,0
2017-12-29T04:40:51.537Z,0
2017-12-29T04:41:51.303Z,0
2017-12-29T04:42:51.561Z,0
2017-12-29T04:43:51.825Z,0
2017-12-29T04:44:51.897Z,0
2017-12-29T04:45:51.595Z,0
2017-12-29T04:46:51.357Z,0
2017-12-29T04:47:51.121Z,0
2017-12-29T04:48:51.125Z,0
2017-12-29T04:49:51.885Z,0
2017-12-29T04:50:51.396Z,0
2017-12-29T04:51:51.358Z,0
2017-12-29T04:52:51.674Z,0
2017-12-29T04:53:51.956Z,0
2017-12-29T04:54:51.743Z,0
2017-12-29T04:55:51.475Z,0
2017-12-29T04:56:51.969Z,0
2017-12-29T04:57:51.475Z,0
2017-12-29T04:58:51.739Z,0
2017-12-29T04:59:52.008Z,0
2017-12-29T05:00:51.515Z,0
2017-12-29T05:01:52.024Z,0
2017-12-29T05:02:51.283Z,0
2017-12-29T05:03:51.555Z,0
2017-12-29T05:04:52.067Z,0
2017-12-29T05:05:51.324Z,0
2017-12-29T05:06:51.837Z,0
2017-12-29T05:07:51.853Z,0
2017-12-29T05:08:51.866Z,0
2017-12-29T05:09:51.678Z,0
2017-12-29T05:10:51.635Z,0
2017-12-29T05:11:51.647Z,0
2017-12-29T05:12:51.655Z,0
2017-12-29T05:13:51.920Z,0
2017-12-29T05:14:51.680Z,0
2017-12-29T05:15:51.438Z,0
2017-12-29T05:16:51.451Z,0
2017-12-29T05:17:51.714Z,0
2017-12-29T05:18:51.976Z,0
2017-12-29T05:19:51.746Z,0
2017-12-29T05:20:51.750Z,0
2017-12-29T05:21:52.012Z,0
2017-12-29T05:22:52.033Z,0
2017-12-29T05:23:52.291Z,0
2017-12-29T05:24:51.844Z,0
2017-12-29T05:25:51.555Z,0
2017-12-29T05:26:52.114Z,0
2017-12-29T05:27:52.082Z,0
2017-12-29T05:28:52.345Z,0
2017-12-29T05:29:51.605Z,0
2017-12-29T05:30:52.373Z,0
2017-12-29T05:31:51.631Z,0
2017-12-29T05:32:52.136Z,0
2017-12-29T05:33:52.164Z,0
2017-12-29T05:34:52.165Z,0
2017-12-29T05:35:51.672Z,0
2017-12-29T05:36:52.044Z,0
2017-12-29T05:37:52.196Z,0
2017-12-29T05:38:51.703Z,0
2017-12-29T05:39:51.981Z,0
2017-12-29T05:40:51.730Z,0
2017-12-29T05:41:52.539Z,0
2017-12-29T05:42:52.257Z,0
2017-12-29T05:43:51.766Z,0
2017-12-29T05:44:52.280Z,0
2017-12-29T05:45:52.541Z,0
2017-12-29T05:46:52.307Z,0
2017-12-29T05:47:52.057Z,0
2017-12-29T05:48:52.086Z,0
2017-12-29T05:49:52.080Z,0
2017-12-29T05:50:52.092Z,0
2017-12-29T05:51:52.358Z,0
2017-12-29T05:52:52.365Z,0
2017-12-29T05:53:52.378Z,0
2017-12-29T05:54:52.390Z,0
2017-12-29T05:55:52.652Z,0
2017-12-29T05:56:52.466Z,0
2017-12-29T05:57:51.920Z,0
2017-12-29T05:58:52.434Z,0
2017-12-29T05:59:52.702Z,0
2017-12-29T06:00:52.719Z,0
2017-12-29T06:01:52.272Z,0
2017-12-29T06:02:52.229Z,0
2017-12-29T06:03:52.742Z,0
2017-12-29T06:04:51.996Z,0
2017-12-29T06:05:52.257Z,0
2017-12-29T06:06:52.547Z,0
2017-12-29T06:07:52.281Z,0
2017-12-29T06:08:52.541Z,0
2017-12-29T06:09:52.304Z,0
2017-12-29T06:10:52.825Z,0
2017-12-29T06:11:52.347Z,0
2017-12-29T06:12:52.839Z,0
2017-12-29T06:13:52.357Z,0
2017-12-29T06:14:52.361Z,0
2017-12-29T06:15:52.124Z,0
2017-12-29T06:16:52.638Z,0
2017-12-29T06:17:52.651Z,0
2017-12-29T06:18:52.157Z,0
2017-12-29T06:19:52.170Z,0
2017-12-29T06:20:52.934Z,0
2017-12-29T06:21:52.186Z,0
2017-12-29T06:22:52.195Z,0
2017-12-29T06:23:52.981Z,0
2017-12-29T06:24:52.232Z,0
2017-12-29T06:25:51.973Z,0
2017-12-29T06:26:52.745Z,0
2017-12-29T06:27:52.455Z,0
2017-12-29T06:28:52.516Z,0
2017-12-29T06:29:52.532Z,0
2017-12-29T06:30:52.791Z,0
2017-12-29T06:31:52.553Z,0
2017-12-29T06:32:52.817Z,0
2017-12-29T06:33:52.322Z,0
2017-12-29T06:34:52.586Z,0
2017-12-29T06:35:52.596Z,0
2017-12-29T06:36:52.606Z,0
2017-12-29T06:37:52.928Z,0
2017-12-29T06:38:52.382Z,0
2017-12-29T06:39:52.641Z,0
2017-12-29T06:40:52.401Z,0
2017-12-29T06:41:52.409Z,0
2017-12-29T06:42:52.726Z,0
2017-12-29T06:43:53.029Z,0
2017-12-29T06:44:53.201Z,0
2017-12-29T06:45:53.209Z,0
2017-12-29T06:46:52.484Z,0
2017-12-29T06:47:52.473Z,0
2017-12-29T06:48:52.999Z,0
2017-12-29T06:49:53.012Z,0
2017-12-29T06:50:52.520Z,0
2017-12-29T06:51:53.298Z,0
2017-12-29T06:52:53.044Z,0
2017-12-29T06:53:53.050Z,0
2017-12-29T06:54:52.806Z,0
2017-12-29T06:55:53.068Z,0
2017-12-29T06:56:53.085Z,0
2017-12-29T06:57:53.162Z,0
2017-12-29T06:58:52.855Z,0
2017-12-29T06:59:53.110Z,0
2017-12-29T07:00:52.874Z,5
2017-12-29T07:01:52.882Z,5
2017-12-29T07:02:52.651Z,5
2017-12-29T07:03:53.426Z,5
2017-12-29T07:04:53.433Z,5
2017-12-29T07:05:52.675Z,5
2017-12-29T07:06:53.444Z,5
2017-12-29T07:07:53.202Z,5
2017-12-29T07:08:52.717Z,5
2017-12-29T07:09:52.989Z,5
2017-12-29T07:10:52.985Z,10
2017-12-29T07:11:52.737Z,10
2017-12-29T07:12:53.301Z,10
2017-12-29T07:13:53.259Z,10
2017-12-29T07:14:52.826Z,10
2017-12-29T07:15:52.784Z,15
2017-12-29T07:16:53.058Z,15
2017-12-29T07:17:53.362Z,15
2017-12-29T07:18:52.574Z,15
2017-12-29T07:19:53.703Z,15
2017-12-29T07:20:52.856Z,15
2017-12-29T07:21:53.110Z,15
2017-12-29T07:22:53.121Z,15
2017-12-29T07:23:53.142Z,20
2017-12-29T07:24:53.646Z,20
2017-12-29T07:25:53.150Z,20
2017-12-29T07:26:53.419Z,25
2017-12-29T07:27:53.481Z,25
2017-12-29T07:28:53.188Z,25
2017-12-29T07:29:53.200Z,25
2017-12-29T07:30:53.212Z,30
2017-12-29T07:31:53.249Z,30
2017-12-29T07:32:53.230Z,30
2017-12-29T07:33:53.261Z,35
2017-12-29T07:34:53.762Z,30
2017-12-29T07:35:53.266Z,30
2017-12-29T07:36:53.605Z,35
2017-12-29T07:37:53.854Z,35
2017-12-29T07:38:53.305Z,35
2017-12-29T07:39:53.057Z,35
2017-12-29T07:40:53.586Z,40
2017-12-29T07:41:53.834Z,40
2017-12-29T07:42:53.391Z,40
2017-12-29T07:43:53.104Z,40
2017-12-29T07:44:53.115Z,45
2017-12-29T07:45:53.387Z,45
2017-12-29T07:46:53.142Z,45
2017-12-29T07:47:53.150Z,50
2017-12-29T07:48:53.418Z,50
2017-12-29T07:49:53.728Z,55
2017-12-29T07:50:53.181Z,55
2017-12-29T07:51:53.448Z,55
2017-12-29T07:52:53.457Z,60
2017-12-29T07:53:53.219Z,60
2017-12-29T07:54:52.980Z,60
2017-12-29T07:55:53.240Z,60
2017-12-29T07:56:53.502Z,65
2017-12-29T07:57:53.313Z,65
2017-12-29T07:58:53.550Z,65
2017-12-29T07:59:53.034Z,70
2017-12-29T08:00:53.805Z,70
2017-12-29T08:01:53.810Z,75
2017-12-29T08:02:53.565Z,75
2017-12-29T08:03:53.578Z,80
2017-12-29T08:04:53.370Z,80
2017-12-29T08:05:53.613Z,85
2017-12-29T08:06:53.621Z,90
2017-12-29T08:07:53.630Z,90
2017-12-29T08:08:53.393Z,95
2017-12-29T08:09:53.927Z,120
2017-12-29T08:10:53.670Z,125
2017-12-29T08:11:53.683Z,110
2017-12-29T08:12:53.489Z,120
2017-12-29T08:13:53.699Z,125
2017-12-29T08:14:54.015Z,125
2017-12-29T08:15:54.229Z,120
2017-12-29T08:16:53.741Z,135
2017-12-29T08:17:54.058Z,150
2017-12-29T08:18:54.279Z,140
2017-12-29T08:19:54.277Z,165
2017-12-29T08:20:53.784Z,165
2017-12-29T08:21:54.311Z,175
2017-12-29T08:22:53.871Z,170
2017-12-29T08:23:53.822Z,170
2017-12-29T08:24:53.835Z,180
2017-12-29T08:25:54.094Z,195
2017-12-29T08:26:53.869Z,200
2017-12-29T08:27:54.178Z,205
2017-12-29T08:28:53.383Z,205
2017-12-29T08:29:53.907Z,205
2017-12-29T08:30:53.907Z,205
2017-12-29T08:31:54.174Z,205
2017-12-29T08:32:54.442Z,205
2017-12-29T08:33:53.695Z,205
2017-12-29T08:34:54.456Z,200
2017-12-29T08:35:53.470Z,195
2017-12-29T08:36:53.989Z,170
2017-12-29T08:37:54.248Z,195
2017-12-29T08:38:53.756Z,200
2017-12-29T08:39:53.777Z,205
2017-12-29T08:40:54.046Z,205
2017-12-29T08:41:54.045Z,210
2017-12-29T08:42:54.107Z,215
2017-12-29T08:43:54.078Z,210
2017-12-29T08:44:53.831Z,205
2017-12-29T08:45:54.346Z,205
2017-12-29T08:46:54.118Z,200
2017-12-29T08:47:54.629Z,200
2017-12-29T08:48:53.879Z,195
2017-12-29T08:49:53.890Z,200
2017-12-29T08:50:53.925Z,200
2017-12-29T08:51:54.422Z,205
2017-12-29T08:52:54.183Z,200
2017-12-29T08:53:53.948Z,200
2017-12-29T08:54:53.961Z,200
2017-12-29T08:55:54.229Z,200
2017-12-29T08:56:54.490Z,200
2017-12-29T08:57:54.499Z,200
2017-12-29T08:58:54.010Z,200
2017-12-29T08:59:54.526Z,200
2017-12-29T09:00:54.340Z,200
2017-12-29T09:01:54.544Z,205
2017-12-29T09:02:54.556Z,205
2017-12-29T09:03:54.567Z,205
2017-12-29T09:04:54.327Z,205
2017-12-29T09:05:54.161Z,210
2017-12-29T09:06:54.108Z,210
2017-12-29T09:07:54.366Z,205
2017-12-29T09:08:54.136Z,205
2017-12-29T09:09:54.398Z,205
2017-12-29T09:10:54.427Z,210
2017-12-29T09:11:54.938Z,205
2017-12-29T09:12:54.691Z,205
2017-12-29T09:13:54.704Z,205
2017-12-29T09:14:54.970Z,205
2017-12-29T09:15:54.288Z,205
2017-12-29T09:16:54.502Z,205
2017-12-29T09:17:55.010Z,205
2017-12-29T09:18:54.516Z,210
2017-12-29T09:19:54.799Z,210
2017-12-29T09:20:54.546Z,210
2017-12-29T09:21:54.564Z,210
2017-12-29T09:22:54.825Z,210
2017-12-29T09:23:54.592Z,210
2017-12-29T09:24:54.591Z,210
2017-12-29T09:25:54.369Z,215
2017-12-29T09:26:54.384Z,215
2017-12-29T09:27:54.131Z,215
2017-12-29T09:28:54.651Z,215
2017-12-29T09:29:54.155Z,215
2017-12-29T09:30:54.974Z,215
2017-12-29T09:31:54.948Z,215
2017-12-29T09:32:54.451Z,220
2017-12-29T09:33:55.219Z,220
2017-12-29T09:34:54.474Z,220
2017-12-29T09:35:54.736Z,220
2017-12-29T09:36:55.245Z,215
2017-12-29T09:37:55.009Z,220
2017-12-29T09:38:55.278Z,220
2017-12-29T09:39:54.790Z,220
2017-12-29T09:40:54.801Z,220
2017-12-29T09:41:55.070Z,220
2017-12-29T09:42:55.353Z,220
2017-12-29T09:43:55.103Z,225
2017-12-29T09:44:55.362Z,225
2017-12-29T09:45:55.480Z,225
2017-12-29T09:46:54.626Z,225
2017-12-29T09:47:54.649Z,225
2017-12-29T09:48:54.910Z,225
2017-12-29T09:49:55.429Z,230
2017-12-29T09:50:54.934Z,230
2017-12-29T09:51:54.941Z,230
2017-12-29T09:52:54.747Z,230
2017-12-29T09:53:55.325Z,230
2017-12-29T09:54:55.491Z,235
2017-12-29T09:55:55.502Z,285
2017-12-29T09:56:55.010Z,765
2017-12-29T09:57:55.284Z,1200
2017-12-29T09:58:54.784Z,1250
2017-12-29T09:59:55.300Z,1255
2017-12-29T10:00:54.863Z,1235
2017-12-29T10:01:55.083Z,1260
2017-12-29T10:02:54.843Z,1265
2017-12-29T10:03:55.353Z,1245
2017-12-29T10:04:55.369Z,1305
2017-12-29T10:05:55.739Z,1360
2017-12-29T10:06:55.145Z,1310
2017-12-29T10:07:55.430Z,1305
2017-12-29T10:08:55.436Z,1345
2017-12-29T10:09:55.214Z,1350
2017-12-29T10:10:55.463Z,1305
2017-12-29T10:11:55.226Z,1325
2017-12-29T10:12:55.246Z,1380
2017-12-29T10:13:55.506Z,1380
2017-12-29T10:14:55.279Z,1370
2017-12-29T10:15:55.444Z,1320
2017-12-29T10:16:55.306Z,1290
2017-12-29T10:17:55.334Z,1330
2017-12-29T10:18:55.852Z,1365
2017-12-29T10:19:55.382Z,1410
2017-12-29T10:20:54.873Z,1430
2017-12-29T10:21:55.901Z,1460
2017-12-29T10:22:55.670Z,1465
2017-12-29T10:23:55.447Z,1450
2017-12-29T10:24:55.455Z,1465
2017-12-29T10:25:55.470Z,1510
2017-12-29T10:26:56.009Z,1570
2017-12-29T10:27:55.262Z,1570
2017-12-29T10:28:55.332Z,1560
2017-12-29T10:29:55.559Z,1630
2017-12-29T10:30:55.623Z,1630
2017-12-29T10:31:56.120Z,1615
2017-12-29T10:32:55.376Z,1680
2017-12-29T10:33:55.882Z,1615
2017-12-29T10:34:55.417Z,1520
2017-12-29T10:35:55.423Z,1600
2017-12-29T10:36:55.707Z,1760
2017-12-29T10:37:55.731Z,1640
2017-12-29T10:38:55.493Z,1650
2017-12-29T10:39:56.280Z,1610
2017-12-29T10:40:56.092Z,1570
2017-12-29T10:41:55.811Z,1555
2017-12-29T10:42:56.090Z,1735
2017-12-29T10:43:55.857Z,1755
2017-12-29T10:44:55.624Z,1550
2017-12-29T10:45:56.200Z,1760
2017-12-29T10:46:55.927Z,1770
2017-12-29T10:47:56.451Z,1690
2017-12-29T10:48:55.973Z,1850
2017-12-29T10:49:56.240Z,2055
2017-12-29T10:50:55.760Z,2065
2017-12-29T10:51:56.044Z,1675
2017-12-29T10:52:56.321Z,1855
2017-12-29T10:53:55.840Z,1825
2017-12-29T10:54:56.424Z,1555
2017-12-29T10:55:56.137Z,1300
2017-12-29T10:56:56.660Z,1050
2017-12-29T10:57:56.476Z,1050
2017-12-29T10:58:56.205Z,1210
2017-12-29T10:59:56.226Z,1175
2017-12-29T11:00:56.880Z,965
2017-12-29T11:01:56.777Z,880
2017-12-29T11:02:56.802Z,880
2017-12-29T11:03:56.567Z,910
2017-12-29T11:04:56.855Z,985
2017-12-29T11:05:56.119Z,1080
2017-12-29T11:06:56.643Z,1095
2017-12-29T11:07:56.468Z,1065
2017-12-29T11:08:56.442Z,1055
2017-12-29T11:09:56.470Z,1070
2017-12-29T11:10:56.742Z,1155
2017-12-29T11:11:56.514Z,1470
2017-12-29T11:12:56.291Z,1850
2017-12-29T11:13:56.313Z,1925
2017-12-29T11:14:56.587Z,1845
2017-12-29T11:15:56.616Z,1910
2017-12-29T11:16:56.888Z,1965
2017-12-29T11:17:56.948Z,1870
2017-12-29T11:18:57.186Z,1815
2017-12-29T11:19:56.968Z,1750
2017-12-29T11:20:56.996Z,1725
2017-12-29T11:21:57.263Z,1860
2017-12-29T11:22:56.589Z,1765
2017-12-29T11:23:57.076Z,1630
2017-12-29T11:24:56.846Z,1735
2017-12-29T11:25:56.606Z,1985
2017-12-29T11:26:56.906Z,2065
2017-12-29T11:27:57.175Z,1945
2017-12-29T11:28:57.457Z,1605
2017-12-29T11:29:56.973Z,1490
2017-12-29T11:30:56.999Z,1425
2017-12-29T11:31:57.277Z,1365
2017-12-29T11:32:57.292Z,1350
2017-12-29T11:33:56.824Z,1340
2017-12-29T11:34:57.600Z,1355
2017-12-29T11:35:57.124Z,1355
2017-12-29T11:36:57.155Z,1550
2017-12-29T11:37:57.229Z,1770
2017-12-29T11:38:56.953Z,1830
2017-12-29T11:39:57.228Z,1610
2017-12-29T11:40:57.507Z,1575
2017-12-29T11:41:57.785Z,1840
2017-12-29T11:42:57.564Z,1985
2017-12-29T11:43:57.587Z,2055
2017-12-29T11:44:57.611Z,1970
2017-12-29T11:45:57.396Z,1940
2017-12-29T11:46:57.918Z,2005
2017-12-29T11:47:57.445Z,2050
2017-12-29T11:48:57.974Z,2050
2017-12-29T11:49:57.752Z,2040
2017-12-29T11:50:57.518Z,2020
2017-12-29T11:51:57.798Z,2070
2017-12-29T11:52:57.120Z,2170
2017-12-29T11:53:57.856Z,2210
2017-12-29T11:54:57.656Z,2140
2017-12-29T11:55:58.243Z,1945
2017-12-29T11:56:57.682Z,1980
2017-12-29T11:57:57.964Z,2170
2017-12-29T11:58:57.740Z,2030
2017-12-29T11:59:57.511Z,2160
2017-12-29T12:00:57.540Z,2305
2017-12-29T12:01:57.581Z,2150
2017-12-29T12:02:57.845Z,2305
2017-12-29T12:03:58.190Z,2285
2017-12-29T12:04:57.917Z,2055
2017-12-29T12:05:58.184Z,2170
2017-12-29T12:06:57.708Z,2190
2017-12-29T12:07:58.036Z,2095
2017-12-29T12:08:58.016Z,2255
2017-12-29T12:09:57.799Z,2395
2017-12-29T12:10:57.823Z,2420
2017-12-29T12:11:58.367Z,2295
2017-12-29T12:12:58.384Z,2175
2017-12-29T12:13:58.405Z,2300
2017-12-29T12:14:58.685Z,2390
2017-12-29T12:15:58.717Z,2330
2017-12-29T12:16:58.493Z,2355
2017-12-29T12:17:58.528Z,2415
2017-12-29T12:18:58.544Z,2305
2017-12-29T12:19:58.329Z,2305
2017-12-29T12:20:58.452Z,2380
2017-12-29T12:21:58.386Z,2285
2017-12-29T12:22:58.311Z,2145
2017-12-29T12:23:58.190Z,2295
2017-12-29T12:24:58.467Z,2420
2017-12-29T12:25:59.007Z,2425
2017-12-29T12:26:58.528Z,2390
2017-12-29T12:27:58.548Z,2345
2017-12-29T12:28:58.836Z,2360
2017-12-29T12:29:59.112Z,2365
2017-12-29T12:30:58.380Z,2290
2017-12-29T12:31:58.911Z,2385
2017-12-29T12:32:59.210Z,2375
2017-12-29T12:33:58.745Z,2345
2017-12-29T12:34:58.513Z,2345
2017-12-29T12:35:59.030Z,2225
2017-12-29T12:36:58.819Z,2200
2017-12-29T12:37:59.038Z,2240
2017-12-29T12:38:59.129Z,2335
2017-12-29T12:39:58.885Z,2440
2017-12-29T12:40:59.225Z,2360
2017-12-29T12:41:59.398Z,2405
2017-12-29T12:42:59.232Z,2450
2017-12-29T12:43:59.500Z,2420
2017-12-29T12:44:59.038Z,2305
2017-12-29T12:45:59.324Z,2295
2017-12-29T12:46:59.092Z,2365
2017-12-29T12:47:59.368Z,2335
2017-12-29T12:48:58.892Z,2360
2017-12-29T12:49:58.921Z,2275
2017-12-29T12:50:59.708Z,2210
2017-12-29T12:51:59.234Z,2225
2017-12-29T12:52:58.810Z,2310
2017-12-29T12:53:59.285Z,2340
2017-12-29T12:54:59.819Z,2220
2017-12-29T12:55:59.347Z,2290
2017-12-29T12:56:59.633Z,2365
2017-12-29T12:57:59.400Z,2255
2017-12-29T12:58:59.421Z,2270
2017-12-29T12:59:59.705Z,2360
2017-12-29T13:00:59.739Z,2360
2017-12-29T13:01:59.508Z,2300
2017-12-29T13:02:59.537Z,2330
2017-12-29T13:03:59.563Z,2320
2017-12-29T13:04:59.863Z,2255
2017-12-29T13:05:59.872Z,2345
2017-12-29T13:06:59.643Z,2380
2017-12-29T13:07:59.575Z,2285
2017-12-29T13:08:59.709Z,2260
2017-12-29T13:09:59.511Z,2225
2017-12-29T13:11:00.096Z,2280
2017-12-29T13:11:59.784Z,2305
2017-12-29T13:12:59.817Z,2260
2017-12-29T13:14:00.089Z,2190
2017-12-29T13:14:59.870Z,1890
2017-12-29T13:16:00.143Z,1480
2017-12-29T13:16:59.924Z,1040
2017-12-29T13:18:00.482Z,530
2017-12-29T13:19:00.238Z,210
2017-12-29T13:20:00.015Z,185
2017-12-29T13:21:00.284Z,180
2017-12-29T13:22:00.058Z,180
2017-12-29T13:23:00.386Z,175
2017-12-29T13:24:00.367Z,175
2017-12-29T13:24:59.889Z,170
2017-12-29T13:26:00.426Z,175
2017-12-29T13:27:00.486Z,170
2017-12-29T13:28:00.459Z,170
2017-12-29T13:28:59.979Z,170
2017-12-29T13:30:00.264Z,170
2017-12-29T13:31:00.795Z,165
2017-12-29T13:32:00.550Z,165
2017-12-29T13:33:00.069Z,165
2017-12-29T13:34:00.588Z,165
2017-12-29T13:35:00.358Z,160
2017-12-29T13:36:00.636Z,160
2017-12-29T13:37:00.656Z,160
2017-12-29T13:38:00.419Z,160
2017-12-29T13:39:00.460Z,160
2017-12-29T13:40:00.762Z,155
2017-12-29T13:40:59.990Z,155
2017-12-29T13:42:01.023Z,155
2017-12-29T13:43:00.529Z,155
2017-12-29T13:44:00.551Z,155
2017-12-29T13:45:01.079Z,150
2017-12-29T13:46:00.845Z,150
2017-12-29T13:47:00.603Z,150
2017-12-29T13:48:00.359Z,150
2017-12-29T13:49:00.877Z,145
2017-12-29T13:50:00.660Z,145
2017-12-29T13:51:01.011Z,145
2017-12-29T13:52:00.461Z,140
2017-12-29T13:53:00.439Z,140
2017-12-29T13:54:01.234Z,140
2017-12-29T13:55:00.801Z,140
2017-12-29T13:56:01.027Z,135
2017-12-29T13:57:01.363Z,135
2017-12-29T13:58:00.784Z,135
2017-12-29T13:59:00.563Z,135
2017-12-29T14:00:00.567Z,130
2017-12-29T14:01:01.079Z,130
2017-12-29T14:02:00.648Z,130
2017-12-29T14:03:00.932Z,125
2017-12-29T14:04:00.938Z,125
2017-12-29T14:05:00.685Z,125
2017-12-29T14:06:00.931Z,125
2017-12-29T14:07:00.715Z,120
2017-12-29T14:08:01.256Z,120
2017-12-29T14:09:01.476Z,120
2017-12-29T14:10:01.031Z,120
2017-12-29T14:11:01.004Z,120
2017-12-29T14:12:01.261Z,115